createdAt,value
2022-09-24T00:01:58.896Z,8.83
2022-09-24T00:04:27.940Z,8.90
2022-09-24T00:06:56.325Z,9.13
2022-09-24T00:09:24.752Z,9.47
2022-09-24T00:11:53.891Z,9.17
2022-09-24T00:14:23.612Z,9.57
2022-09-24T00:16:51.983Z,9.77
2022-09-24T00:19:20.313Z,10.10
2022-09-24T00:21:48.741Z,10.50
2022-09-24T00:24:32.113Z,11.23
2022-09-24T00:27:00.771Z,10.63
2022-09-24T00:29:34.046Z,10.87
2022-09-24T00:32:02.949Z,10.07
2022-09-24T00:34:31.451Z,10.80
2022-09-24T00:37:00.066Z,11.10
2022-09-24T00:39:28.487Z,10.73
2022-09-24T00:41:56.926Z,10.90
2022-09-24T00:44:45.054Z,10.70
2022-09-24T00:47:15.823Z,9.40
2022-09-24T00:49:44.330Z,9.80
2022-09-24T00:52:12.950Z,9.10
2022-09-24T00:54:43.206Z,9.27
2022-09-24T00:57:11.675Z,9.60
2022-09-24T00:59:40.251Z,9.53
2022-09-24T01:02:08.922Z,9.90
2022-09-24T01:04:38.732Z,10.40
2022-09-24T01:07:07.199Z,9.47
2022-09-24T01:09:35.722Z,9.60
2022-09-24T01:12:06.433Z,10.33
2022-09-24T01:14:40.570Z,10.60
2022-09-24T01:17:14.988Z,10.93
2022-09-24T01:19:58.591Z,10.70
2022-09-24T01:22:36.440Z,11.03
2022-09-24T01:25:09.425Z,11.07
2022-09-24T01:27:45.388Z,11.60
2022-09-24T01:30:16.279Z,10.90
2022-09-24T01:32:49.705Z,13.00
2022-09-24T01:35:21.568Z,13.17
2022-09-24T01:37:53.119Z,13.60
2022-09-24T01:40:22.694Z,12.53
2022-09-24T01:42:52.274Z,12.57
2022-09-24T01:45:22.772Z,13.07
2022-09-24T01:47:51.372Z,12.83
2022-09-24T01:50:21.316Z,12.07
2022-09-24T01:52:53.425Z,13.23
2022-09-24T01:55:24.610Z,13.27
2022-09-24T01:57:55.727Z,14.53
2022-09-24T02:00:25.960Z,13.90
2022-09-24T02:02:58.154Z,14.47
2022-09-24T02:05:31.587Z,14.37
2022-09-24T02:08:03.815Z,14.53
2022-09-24T02:10:33.723Z,15.87
2022-09-24T02:13:04.705Z,15.03
2022-09-24T02:15:37.364Z,14.40
2022-09-24T02:18:08.718Z,15.00
2022-09-24T02:20:37.995Z,15.20
2022-09-24T02:23:06.960Z,15.67
2022-09-24T02:25:39.412Z,16.30
2022-09-24T02:28:08.379Z,18.03
2022-09-24T02:30:41.333Z,17.93
2022-09-24T02:33:30.860Z,17.83
2022-09-24T02:35:58.359Z,19.27
2022-09-24T02:38:26.861Z,18.00
2022-09-24T02:40:55.580Z,16.43
2022-09-24T02:43:24.396Z,16.53
2022-09-24T02:45:54.501Z,16.20
2022-09-24T02:48:22.920Z,15.13
2022-09-24T02:50:51.551Z,16.53
2022-09-24T02:53:19.945Z,16.67
2022-09-24T02:55:48.874Z,15.97
2022-09-24T02:58:17.255Z,16.60
2022-09-24T03:00:45.605Z,17.23
2022-09-24T03:03:15.511Z,15.77
2022-09-24T03:05:44.542Z,15.97
2022-09-24T03:08:12.963Z,15.37
2022-09-24T03:10:41.359Z,15.93
2022-09-24T03:13:11.081Z,16.10
2022-09-24T03:15:39.739Z,17.53
2022-09-24T03:18:08.194Z,17.03
2022-09-24T03:20:37.927Z,16.77
2022-09-24T03:23:06.471Z,17.13
2022-09-24T03:25:34.834Z,18.70
2022-09-24T03:28:03.421Z,18.90
2022-09-24T03:30:49.267Z,18.27
2022-09-24T03:33:17.670Z,19.37
2022-09-24T03:35:47.391Z,19.20
2022-09-24T03:38:15.769Z,19.83
2022-09-24T03:40:44.170Z,20.83
2022-09-24T03:43:12.616Z,20.60
2022-09-24T03:45:40.992Z,20.90
2022-09-24T03:48:09.376Z,19.53
2022-09-24T03:50:38.013Z,19.60
2022-09-24T03:53:07.821Z,19.67
2022-09-24T03:55:36.555Z,20.23
2022-09-24T03:58:04.953Z,20.77
2022-09-24T04:00:36.425Z,19.57
2022-09-24T04:03:08.786Z,19.67
2022-09-24T04:05:37.517Z,21.33
2022-09-24T04:08:07.318Z,21.80
2022-09-24T04:10:37.171Z,21.30
2022-09-24T04:13:05.774Z,20.43
2022-09-24T04:15:34.294Z,20.60
2022-09-24T04:18:02.680Z,20.27
2022-09-24T04:20:31.495Z,21.13
2022-09-24T04:23:00.339Z,19.30
2022-09-24T04:25:30.659Z,20.77
2022-09-24T04:28:01.439Z,20.50
2022-09-24T04:30:30.413Z,20.40
2022-09-24T04:33:00.884Z,22.00
2022-09-24T04:35:30.074Z,20.57
2022-09-24T04:37:59.414Z,19.87
2022-09-24T04:40:28.352Z,20.33
2022-09-24T04:42:56.793Z,20.87
2022-09-24T04:45:26.919Z,20.33
2022-09-24T04:47:57.517Z,22.17
2022-09-24T04:50:26.272Z,22.00
2022-09-24T04:52:54.806Z,21.13
2022-09-24T04:55:23.243Z,22.07
2022-09-24T04:57:51.663Z,22.17
2022-09-24T05:00:21.332Z,21.17
2022-09-24T05:02:57.510Z,20.77
2022-09-24T05:05:26.032Z,21.23
2022-09-24T05:07:56.767Z,21.50
2022-09-24T05:10:25.372Z,21.57
2022-09-24T05:12:53.868Z,20.83
2022-09-24T05:15:23.454Z,21.47
2022-09-24T05:17:53.218Z,21.63
2022-09-24T05:20:21.728Z,22.13
2022-09-24T05:22:51.010Z,21.50
2022-09-24T05:25:20.304Z,21.33
2022-09-24T05:27:47.742Z,21.93
2022-09-24T05:30:16.992Z,21.03
2022-09-24T05:32:45.418Z,21.00
2022-09-24T05:35:15.255Z,20.63
2022-09-24T05:37:44.155Z,21.60
2022-09-24T05:40:38.608Z,22.13
2022-09-24T05:43:07.194Z,21.00
2022-09-24T05:45:35.605Z,21.20
2022-09-24T05:48:04.228Z,21.80
2022-09-24T05:50:35.060Z,23.63
2022-09-24T05:53:03.823Z,23.20
2022-09-24T05:55:32.803Z,22.23
2022-09-24T05:58:04.432Z,23.70
2022-09-24T06:00:33.269Z,24.13
2022-09-24T06:03:06.765Z,23.47
2022-09-24T06:05:36.696Z,23.00
2022-09-24T06:08:05.702Z,23.63
2022-09-24T06:10:34.337Z,23.77
2022-09-24T06:13:02.753Z,23.77
2022-09-24T06:15:31.117Z,24.13
2022-09-24T06:17:59.542Z,24.30
2022-09-24T06:20:28.004Z,23.23
2022-09-24T06:22:58.576Z,23.73
2022-09-24T06:25:26.985Z,22.57
2022-09-24T06:28:00.618Z,23.83
2022-09-24T06:30:29.791Z,23.40
2022-09-24T06:33:03.013Z,24.23
2022-09-24T06:35:31.546Z,24.43
2022-09-24T06:38:01.331Z,24.63
2022-09-24T06:40:34.135Z,23.00
2022-09-24T06:43:05.361Z,24.23
2022-09-24T06:45:33.858Z,25.17
2022-09-24T06:48:03.227Z,24.80
2022-09-24T06:50:32.739Z,24.97
2022-09-24T06:53:02.544Z,24.93
2022-09-24T06:55:30.895Z,24.83
2022-09-24T06:58:06.428Z,26.47
2022-09-24T07:00:34.916Z,27.07
2022-09-24T07:03:03.531Z,26.33
2022-09-24T07:05:32.048Z,26.60
2022-09-24T07:08:01.925Z,27.10
2022-09-24T07:10:31.076Z,27.27
2022-09-24T07:12:59.525Z,25.90
2022-09-24T07:15:27.940Z,26.60
2022-09-24T07:17:57.299Z,26.87
2022-09-24T07:20:28.211Z,26.97
2022-09-24T07:22:56.880Z,27.87
2022-09-24T07:25:26.694Z,27.67
2022-09-24T07:27:55.091Z,27.60
2022-09-24T07:30:23.788Z,25.80
2022-09-24T07:32:56.228Z,27.63
2022-09-24T07:35:24.698Z,28.30
2022-09-24T07:37:58.680Z,27.03
2022-09-24T07:40:28.733Z,27.03
2022-09-24T07:42:57.284Z,26.73
2022-09-24T07:45:28.040Z,26.97
2022-09-24T07:48:00.063Z,27.73
2022-09-24T07:50:28.968Z,25.60
2022-09-24T07:52:57.571Z,25.30
2022-09-24T07:55:26.682Z,25.17
2022-09-24T07:57:57.509Z,25.87
2022-09-24T08:00:26.843Z,24.90
2022-09-24T08:02:56.638Z,27.27
2022-09-24T08:05:25.466Z,25.70
2022-09-24T08:07:54.124Z,26.70
2022-09-24T08:10:22.734Z,28.23
2022-09-24T08:12:51.475Z,28.40
2022-09-24T08:15:22.705Z,28.63
2022-09-24T08:17:51.704Z,27.70
2022-09-24T08:20:21.023Z,27.37
2022-09-24T08:22:49.468Z,27.53
2022-09-24T08:25:17.908Z,27.63
2022-09-24T08:27:46.281Z,28.07
2022-09-24T08:30:15.269Z,28.73
2022-09-24T08:32:52.213Z,26.23
2022-09-24T08:35:21.068Z,25.93
2022-09-24T08:37:49.437Z,25.70
2022-09-24T08:40:19.650Z,25.87
2022-09-24T08:42:50.982Z,26.20
2022-09-24T08:45:37.185Z,25.63
2022-09-24T08:48:14.764Z,27.10
2022-09-24T08:50:49.579Z,25.10
2022-09-24T08:53:20.198Z,26.60
2022-09-24T08:55:49.156Z,26.83
2022-09-24T08:58:24.018Z,26.80
2022-09-24T09:00:55.652Z,26.60
2022-09-24T09:03:32.075Z,25.47
2022-09-24T09:06:03.243Z,25.00
2022-09-24T09:09:06.218Z,25.47
2022-09-24T09:11:26.636Z,24.83
2022-09-24T09:13:58.021Z,24.50
2022-09-24T09:16:28.249Z,25.27
2022-09-24T09:19:01.980Z,25.43
2022-09-24T09:21:33.527Z,24.40
2022-09-24T09:24:03.726Z,22.67
2022-09-24T09:26:32.312Z,23.03
2022-09-24T09:29:04.246Z,22.03
2022-09-24T09:31:39.999Z,22.87
2022-09-24T09:34:18.765Z,22.83
2022-09-24T09:36:54.366Z,22.20
2022-09-24T09:39:28.500Z,22.03
2022-09-24T09:41:59.217Z,23.03
2022-09-24T09:44:28.518Z,23.23
2022-09-24T09:46:59.216Z,22.97
2022-09-24T09:49:33.990Z,23.70
2022-09-24T09:52:03.930Z,22.33
2022-09-24T09:54:38.547Z,22.37
2022-09-24T09:57:08.010Z,21.30
2022-09-24T09:59:36.760Z,20.40
2022-09-24T10:02:11.957Z,21.13
2022-09-24T10:04:43.498Z,19.77
2022-09-24T10:07:12.756Z,19.17
2022-09-24T10:09:42.201Z,18.80
2022-09-24T10:12:11.701Z,17.90
2022-09-24T10:14:40.240Z,18.37
2022-09-24T10:17:08.936Z,18.27
2022-09-24T10:19:39.134Z,18.50
2022-09-24T10:22:13.027Z,18.53
2022-09-24T10:24:44.081Z,20.17
2022-09-24T10:27:13.221Z,18.30
2022-09-24T10:29:59.856Z,18.50
2022-09-24T10:32:29.657Z,18.70
2022-09-24T10:34:58.772Z,19.77
2022-09-24T10:37:28.922Z,18.93
2022-09-24T10:40:00.740Z,19.23
2022-09-24T10:42:30.053Z,18.70
2022-09-24T10:45:01.152Z,17.23
2022-09-24T10:47:32.387Z,16.40
2022-09-24T10:50:05.532Z,16.13
2022-09-24T10:52:41.225Z,15.37
2022-09-24T10:55:16.582Z,15.90
2022-09-24T10:57:51.670Z,15.67
2022-09-24T11:00:21.796Z,16.20
2022-09-24T11:03:07.199Z,16.40
2022-09-24T11:05:37.974Z,17.17
2022-09-24T11:08:14.786Z,16.90
2022-09-24T11:10:51.827Z,16.90
2022-09-24T11:13:26.078Z,17.97
2022-09-24T11:16:00.338Z,17.43
2022-09-24T11:18:32.909Z,16.63
2022-09-24T11:21:07.977Z,16.67
2022-09-24T11:23:47.868Z,17.43
2022-09-24T11:26:20.227Z,17.47
2022-09-24T11:29:11.522Z,17.20
2022-09-24T11:31:42.601Z,17.53
2022-09-24T11:34:23.843Z,16.77
2022-09-24T11:36:59.648Z,17.73
2022-09-24T11:39:35.812Z,17.33
2022-09-24T11:42:08.277Z,17.33
2022-09-24T11:44:57.039Z,17.40
2022-09-24T11:47:31.187Z,18.27
2022-09-24T11:50:14.403Z,17.40
2022-09-24T11:52:44.744Z,16.00
2022-09-24T11:55:17.276Z,16.50
2022-09-24T11:57:47.123Z,17.07
2022-09-24T12:00:20.326Z,17.73
2022-09-24T12:02:50.217Z,17.10
2022-09-24T12:05:21.549Z,17.27
2022-09-24T12:07:53.012Z,15.63
2022-09-24T12:10:29.803Z,16.70
2022-09-24T12:13:02.521Z,17.03
2022-09-24T12:15:32.815Z,17.63
2022-09-24T12:18:04.352Z,18.13
2022-09-24T12:20:33.582Z,17.70
2022-09-24T12:23:04.605Z,17.17
2022-09-24T12:25:40.170Z,17.13
2022-09-24T12:28:11.825Z,17.80
2022-09-24T12:31:00.490Z,16.87
2022-09-24T12:33:31.493Z,16.87
2022-09-24T12:36:04.553Z,18.87
2022-09-24T12:38:35.385Z,18.83
2022-09-24T12:41:20.058Z,17.73
2022-09-24T12:43:50.630Z,17.60
2022-09-24T12:46:20.272Z,18.77
2022-09-24T12:48:50.207Z,18.47
2022-09-24T12:51:22.348Z,18.03
2022-09-24T12:53:58.408Z,19.60
2022-09-24T12:56:29.765Z,19.27
2022-09-24T12:58:58.540Z,20.00
2022-09-24T13:01:32.233Z,19.33
2022-09-24T13:04:08.357Z,19.70
2022-09-24T13:06:37.794Z,20.13
2022-09-24T13:09:25.971Z,20.50
2022-09-24T13:12:03.789Z,21.13
2022-09-24T13:14:33.212Z,20.70
2022-09-24T13:17:06.517Z,20.70
2022-09-24T13:19:36.788Z,21.13
2022-09-24T13:22:05.607Z,21.03
2022-09-24T13:24:47.098Z,21.90
2022-09-24T13:27:38.020Z,22.13
2022-09-24T13:30:08.656Z,23.23
2022-09-24T13:32:40.324Z,23.00
2022-09-24T13:35:12.383Z,21.80
2022-09-24T13:37:43.264Z,22.47
2022-09-24T13:40:18.786Z,22.67
2022-09-24T13:42:51.496Z,23.80
2022-09-24T13:45:21.890Z,23.87
2022-09-24T13:47:53.002Z,23.33
2022-09-24T13:50:22.790Z,23.27
2022-09-24T13:52:52.954Z,23.77
2022-09-24T13:55:23.511Z,23.93
2022-09-24T13:57:53.239Z,24.03
2022-09-24T14:00:22.598Z,22.43
2022-09-24T14:02:56.177Z,22.73
2022-09-24T14:05:25.116Z,22.37
2022-09-24T14:07:57.531Z,22.37
2022-09-24T14:10:26.280Z,21.53
2022-09-24T14:13:17.624Z,21.97
2022-09-24T14:15:55.634Z,21.90
2022-09-24T14:18:24.672Z,22.30
2022-09-24T14:20:56.211Z,21.10
2022-09-24T14:23:26.115Z,22.33
2022-09-24T14:25:55.131Z,22.10
2022-09-24T14:28:25.156Z,21.57
2022-09-24T14:30:54.836Z,22.30
2022-09-24T14:33:26.101Z,22.20
2022-09-24T14:35:55.762Z,22.43
2022-09-24T14:38:28.476Z,23.10
2022-09-24T14:40:58.234Z,24.10
2022-09-24T14:43:32.214Z,25.03
2022-09-24T14:46:04.483Z,24.77
2022-09-24T14:48:34.305Z,26.97
2022-09-24T14:51:03.074Z,28.17
2022-09-24T14:53:33.133Z,27.47
2022-09-24T14:56:01.498Z,31.63
2022-09-24T14:58:37.762Z,31.77
2022-09-24T15:01:08.034Z,33.80
2022-09-24T15:03:41.169Z,32.03
2022-09-24T15:06:16.630Z,26.63
2022-09-24T15:08:45.179Z,26.87
2022-09-24T15:11:18.263Z,38.53
2022-09-24T15:13:48.089Z,26.97
2022-09-24T15:16:21.082Z,29.77
2022-09-24T15:18:58.557Z,29.83
2022-09-24T15:21:27.913Z,27.60
2022-09-24T15:23:57.735Z,28.40
2022-09-24T15:26:29.546Z,27.63
2022-09-24T15:29:00.283Z,29.80
2022-09-24T15:31:29.015Z,30.20
2022-09-24T15:33:57.472Z,29.50
2022-09-24T15:36:26.271Z,30.17
2022-09-24T15:39:05.517Z,33.90
2022-09-24T15:41:34.843Z,33.27
2022-09-24T15:44:04.808Z,33.50
2022-09-24T15:46:33.220Z,31.63
2022-09-24T15:49:01.665Z,31.83
2022-09-24T15:51:30.117Z,31.17
2022-09-24T15:53:58.547Z,29.43
2022-09-24T15:56:28.158Z,30.50
2022-09-24T15:58:56.724Z,30.60
2022-09-24T16:01:26.639Z,31.73
2022-09-24T16:03:55.098Z,30.63
2022-09-24T16:06:24.122Z,31.57
2022-09-24T16:08:52.537Z,32.73
2022-09-24T16:11:20.897Z,32.03
2022-09-24T16:13:52.450Z,32.07
2022-09-24T16:16:20.906Z,34.37
2022-09-24T16:18:50.693Z,33.80
2022-09-24T16:21:19.102Z,33.53
2022-09-24T16:23:47.492Z,34.97
2022-09-24T16:26:16.004Z,33.03
2022-09-24T16:28:44.367Z,32.90
2022-09-24T16:31:13.078Z,34.73
2022-09-24T16:33:41.700Z,34.47
2022-09-24T16:36:11.967Z,33.10
2022-09-24T16:38:40.841Z,32.73
2022-09-24T16:41:10.689Z,32.87
2022-09-24T16:43:39.240Z,33.03
2022-09-24T16:46:08.669Z,32.87
2022-09-24T16:48:38.716Z,32.23
2022-09-24T16:51:08.797Z,32.83
2022-09-24T16:53:38.564Z,32.10
2022-09-24T16:56:08.462Z,31.97
2022-09-24T16:58:36.988Z,30.73
2022-09-24T17:01:06.126Z,30.50
2022-09-24T17:03:34.696Z,30.10
2022-09-24T17:06:03.260Z,29.87
2022-09-24T17:08:46.537Z,30.33
2022-09-24T17:11:16.665Z,30.53
2022-09-24T17:13:47.494Z,30.93
2022-09-24T17:16:16.333Z,30.60
2022-09-24T17:18:46.329Z,30.50
2022-09-24T17:21:16.881Z,31.10
2022-09-24T17:23:49.288Z,31.67
2022-09-24T17:26:20.380Z,31.20
2022-09-24T17:28:49.619Z,29.83
2022-09-24T17:31:21.303Z,31.10
2022-09-24T17:33:49.869Z,30.60
2022-09-24T17:36:18.383Z,31.40
2022-09-24T17:38:46.752Z,33.37
2022-09-24T17:41:15.617Z,33.77
2022-09-24T17:43:52.391Z,31.87
2022-09-24T17:46:27.336Z,32.13
2022-09-24T17:49:02.009Z,33.17
2022-09-24T17:51:42.696Z,32.93
2022-09-24T17:54:17.489Z,32.53
2022-09-24T17:56:49.850Z,32.67
2022-09-24T17:59:26.777Z,33.03
2022-09-24T18:01:55.814Z,33.60
2022-09-24T18:04:25.842Z,33.03
2022-09-24T18:06:54.229Z,31.80
2022-09-24T18:09:22.620Z,26.97
2022-09-24T18:11:51.657Z,26.93
2022-09-24T18:14:22.272Z,27.20
2022-09-24T18:16:51.028Z,25.43
2022-09-24T18:19:19.706Z,23.97
2022-09-24T18:21:49.247Z,21.53
2022-09-24T18:24:18.047Z,16.57
2022-09-24T18:26:51.390Z,15.00
2022-09-24T18:29:22.057Z,14.43
2022-09-24T18:31:51.427Z,14.40
2022-09-24T18:34:20.019Z,12.87
2022-09-24T18:36:48.378Z,12.13
2022-09-24T18:39:23.934Z,12.27
2022-09-24T18:41:53.598Z,12.07
2022-09-24T18:44:23.621Z,11.57
2022-09-24T18:46:52.117Z,11.20
2022-09-24T18:49:20.557Z,11.13
2022-09-24T18:51:52.261Z,10.77
2022-09-24T18:54:20.667Z,10.47
2022-09-24T18:56:49.071Z,10.33
2022-09-24T18:59:18.869Z,9.60
2022-09-24T19:01:50.742Z,8.97
2022-09-24T19:04:19.934Z,10.40
2022-09-24T19:06:49.935Z,10.27
2022-09-24T19:09:18.683Z,10.03
2022-09-24T19:11:50.524Z,10.30
2022-09-24T19:14:19.263Z,10.27
2022-09-24T19:16:49.026Z,11.87
2022-09-24T19:19:17.428Z,10.50
2022-09-24T19:21:45.965Z,10.97
2022-09-24T19:24:14.403Z,11.87
2022-09-24T19:26:43.412Z,11.40
2022-09-24T19:29:12.020Z,11.63
2022-09-24T19:31:41.311Z,13.33
2022-09-24T19:34:12.753Z,17.00
2022-09-24T19:36:44.144Z,11.93
2022-09-24T19:39:13.519Z,13.87
2022-09-24T19:41:41.954Z,12.70
2022-09-24T19:44:11.572Z,12.20
2022-09-24T19:46:41.089Z,12.20
2022-09-24T19:49:11.120Z,12.70
2022-09-24T19:51:39.809Z,13.00
2022-09-24T19:54:09.175Z,12.27
2022-09-24T19:56:38.168Z,12.77
2022-09-24T19:59:08.768Z,13.33
2022-09-24T20:01:37.699Z,13.40
2022-09-24T20:04:07.325Z,12.83
2022-09-24T20:06:38.213Z,13.20
2022-09-24T20:09:07.250Z,14.13
2022-09-24T20:11:35.617Z,13.53
2022-09-24T20:14:09.286Z,14.57
2022-09-24T20:16:38.131Z,14.43
2022-09-24T20:19:06.536Z,13.90
2022-09-24T20:21:36.039Z,14.73
2022-09-24T20:24:07.138Z,14.50
2022-09-24T20:26:53.230Z,14.63
2022-09-24T20:29:23.073Z,15.50
2022-09-24T20:31:53.021Z,15.93
2022-09-24T20:34:22.295Z,15.67
2022-09-24T20:36:50.873Z,15.80
2022-09-24T20:39:21.071Z,16.83
2022-09-24T20:41:50.271Z,16.60
2022-09-24T20:44:18.989Z,16.57
2022-09-24T20:46:47.353Z,16.63
2022-09-24T20:49:19.393Z,17.30
2022-09-24T20:51:50.577Z,17.43
2022-09-24T20:54:24.253Z,17.57
2022-09-24T20:56:52.589Z,19.83
2022-09-24T20:59:21.043Z,19.73
2022-09-24T21:01:49.687Z,19.27
2022-09-24T21:04:20.161Z,19.93
2022-09-24T21:06:48.707Z,20.00
2022-09-24T21:09:18.023Z,20.27
2022-09-24T21:11:50.609Z,20.60
2022-09-24T21:14:19.388Z,21.77
2022-09-24T21:16:47.835Z,22.27
2022-09-24T21:19:16.740Z,22.90
2022-09-24T21:21:45.630Z,24.63
2022-09-24T21:24:15.084Z,24.13
2022-09-24T21:26:44.912Z,24.43
2022-09-24T21:29:16.708Z,23.93
2022-09-24T21:31:46.296Z,24.83
2022-09-24T21:34:15.765Z,25.63
2022-09-24T21:36:45.684Z,24.77
2022-09-24T21:39:15.326Z,25.97
2022-09-24T21:41:43.707Z,24.50
2022-09-24T21:44:14.255Z,25.00
2022-09-24T21:46:44.064Z,26.53
2022-09-24T21:49:13.054Z,25.83
2022-09-24T21:51:41.987Z,26.43
2022-09-24T21:54:12.680Z,26.93
2022-09-24T21:56:41.117Z,28.27
2022-09-24T21:59:24.152Z,25.73
2022-09-24T22:01:54.419Z,25.00
2022-09-24T22:04:23.160Z,21.63
2022-09-24T22:06:52.135Z,17.53
2022-09-24T22:09:20.709Z,16.13
2022-09-24T22:11:49.377Z,15.60
2022-09-24T22:14:17.765Z,15.80
2022-09-24T22:16:46.178Z,15.73
2022-09-24T22:19:16.144Z,16.40
2022-09-24T22:21:44.505Z,18.63
2022-09-24T22:24:13.275Z,20.53
2022-09-24T22:26:41.732Z,21.17
2022-09-24T22:29:10.119Z,20.07
2022-09-24T22:31:38.445Z,20.13
2022-09-24T22:34:24.585Z,19.83
2022-09-24T22:36:54.320Z,19.90
2022-09-24T22:39:22.955Z,19.87
2022-09-24T22:41:52.568Z,20.33
2022-09-24T22:44:20.975Z,19.33
2022-09-24T22:46:49.349Z,19.33
2022-09-24T22:49:17.809Z,18.90
2022-09-24T22:51:46.180Z,19.13
2022-09-24T22:54:16.560Z,19.87
2022-09-24T22:56:44.964Z,19.53
2022-09-24T22:59:13.350Z,18.90
2022-09-24T23:01:42.610Z,19.37
2022-09-24T23:04:13.376Z,19.80
2022-09-24T23:06:41.824Z,20.10
2022-09-24T23:09:10.308Z,19.13
2022-09-24T23:11:40.087Z,19.23
2022-09-24T23:14:09.327Z,20.07
2022-09-24T23:16:38.907Z,19.47
2022-09-24T23:19:08.637Z,19.80
2022-09-24T23:21:37.319Z,19.57
2022-09-24T23:24:06.764Z,20.10
2022-09-24T23:26:35.252Z,20.30
2022-09-24T23:29:05.038Z,19.77
2022-09-24T23:31:35.594Z,20.23
2022-09-24T23:34:04.090Z,19.73
2022-09-24T23:36:33.325Z,19.63
2022-09-24T23:39:02.439Z,20.53
2022-09-24T23:41:31.786Z,20.00
2022-09-24T23:44:00.475Z,20.90
2022-09-24T23:46:30.433Z,20.23
2022-09-24T23:48:58.958Z,19.47
2022-09-24T23:51:27.415Z,18.87
2022-09-24T23:53:55.813Z,19.50
2022-09-24T23:56:24.286Z,18.70
2022-09-24T23:58:52.712Z,19.67
